Latest Weather Observations for Casino

IDN60801

Issued at 12:35 pm EDT Sunday 26 October 2014 (issued every 30 minutes, with the page automatically refreshed every 10 minutes)

About weather observations | Map of weather stations | Latest weather observations for NSW | Other Formats
Station Details ID: 058208 Name: CASINO AIRPORT AWS Lat: -28.88 Lon: 153.06 Height: 20.9 m
Data from the previous 72 hours. | See also: Recent months at Casino
Date/Time
EDT
Temp
°C
App
Temp
°C
Dew
Point
Rel
Hum
%
Delta-T
°C
Wind Press
QNH
hPa
Press
MSL
hPa
Rain
since 9 am
mm
Dir
 
Spd
km/h
Gust
km/h
Spd
kts
Gust
kts
26/12:30pm 33.6 33.0 14.6 31 11.7 N 11 17 6 9 1012.0 1012.0 0.0
26/12:00pm 32.2 32.3 16.5 39 9.9 N 11 24 6 13 1012.7 1012.7 0.0
26/11:30am 31.0 31.7 16.2 41 9.3 NE 7 13 4 7 1013.4 1013.4 0.0
26/11:00am 29.3 29.6 16.1 44 8.2 ENE 9 13 5 7 1014.3 1014.2 0.0
26/10:30am 28.0 29.0 16.3 49 7.2 NNE 6 9 3 5 1014.6 1014.5 0.0
26/10:00am 26.6 27.8 16.8 55 6.1 NE 6 11 3 6 1014.9 1014.8 0.0
26/09:30am 24.9 26.3 17.4 63 4.7 NE 6 9 3 5 1015.2 1015.1 0.0
26/09:00am 23.3 24.7 17.3 69 3.7 NNE 6 9 3 5 1015.4 1015.3 10.6
26/08:30am 21.7 22.3 16.9 74 2.9 N 9 11 5 6 1015.4 1015.3 10.6
26/08:00am 19.3 20.0 16.2 82 1.9 W 7 9 4 5 1015.3 1015.2 10.6
26/07:30am 17.3 19.1 15.6 90 1.0 CALM 0 6 0 3 1015.1 1015.0 10.6
26/07:00am 15.9 17.1 14.9 94 0.6 W 2 7 1 4 1014.8 1014.7 10.6
26/06:30am 13.7 13.4 12.6 93 0.6 SW 6 7 3 4 1014.7 1014.6 10.6
26/06:00am 13.4 13.7 12.3 93 0.6 NE 2 6 1 3 1014.4 1014.3 10.6
26/05:30am 13.4 14.1 12.1 92 0.7 CALM 0 0 0 0 1014.1 1014.0 10.6
26/05:00am 14.4 15.4 13.3 93 0.6 CALM 0 0 0 0 1014.3 1014.2 10.6
26/04:30am 14.3 14.9 13.2 93 0.6 E 2 6 1 3 1014.2 1014.1 10.6
26/04:00am 14.0 14.8 12.4 90 0.9 CALM 0 6 0 3 1014.2 1014.1 10.4
26/03:30am 14.9 14.9 13.6 92 0.7 WNW 6 6 3 3 1014.3 1014.2 10.4
26/03:00am 15.2 16.4 13.9 92 0.7 CALM 0 0 0 0 1014.4 1014.3 10.4
26/02:30am 16.2 16.7 15.1 93 0.6 W 6 7 3 4 1014.8 1014.7 10.4
26/02:00am 15.6 17.0 14.3 92 0.7 CALM 0 0 0 0 1014.9 1014.8 10.4
26/01:30am 16.4 18.1 15.1 92 0.8 CALM 0 6 0 3 1015.3 1015.2 10.4
26/01:00am 16.8 17.9 15.5 92 0.8 W 4 7 2 4 1015.6 1015.5 10.4
26/12:30am 17.3 19.3 16.0 92 0.8 CALM 0 0 0 0 1016.0 1015.9 10.4
26/12:00am 17.3 18.2 16.0 92 0.8 SSW 6 7 3 4 1016.2 1016.1 10.4
 
Date/Time
EDT
Temp
°C
App
Temp
°C
Dew
Point
Rel
Hum
%
Delta-T
°C
Wind Press
QNH
hPa
Press
MSL
hPa
Rain
since 9 am
mm
Dir
 
Spd
km/h
Gust
km/h
Spd
kts
Gust
kts
25/11:30pm 17.4 19.4 15.9 91 0.9 S 0 0 0 0 1016.0 1015.9 10.4
25/11:00pm 17.8 19.8 16.1 90 1.0 CALM 0 0 0 0 1015.8 1015.7 10.4
25/10:30pm 17.9 19.8 15.7 87 1.3 CALM 0 0 0 0 1015.7 1015.6 10.4
25/10:00pm 19.4 21.6 17.5 89 1.2 NW 2 6 1 3 1015.6 1015.5 10.4
25/09:30pm 19.4 21.0 17.0 86 1.5 NW 4 7 2 4 1015.6 1015.5 10.4
25/09:00pm 19.9 21.2 17.5 86 1.5 W 7 9 4 5 1015.4 1015.3 10.4
25/08:30pm 21.3 24.2 18.1 82 2.0 CALM 0 0 0 0 1014.9 1014.8 10.4
25/08:00pm 22.3 23.8 18.1 77 2.6 ESE 7 9 4 5 1014.9 1014.8 10.4
25/07:30pm 22.8 26.1 19.0 79 2.4 CALM 0 0 0 0 1014.5 1014.4 10.4
25/07:00pm 22.7 23.6 18.5 77 2.6 SE 11 15 6 8 1014.1 1014.0 10.4
25/06:30pm 23.6 24.7 18.0 71 3.5 ESE 9 17 5 9 1013.5 1013.5 10.4
25/06:00pm 22.4 21.8 16.7 70 3.5 NE 15 19 8 10 1012.8 1012.8 10.4
25/05:30pm 23.6 22.2 19.7 79 2.5 SW 26 48 14 26 1014.0 1013.9 4.4
25/05:24pm 22.9 19.9 16.9 69 3.7 SSW 28 48 15 26 1013.3 1013.3 3.8
25/05:17pm 27.4 23.9 17.8 55 6.1 ESE 33 43 18 23 1012.4 1012.4 0.2
25/05:00pm 32.6 29.6 14.7 34 11.0 ENE 24 30 13 16 1011.0 1011.0 0.0
25/04:30pm 35.1 32.3 12.7 26 13.5 NNE 19 26 10 14 1010.9 1010.9 0.0
25/04:00pm 35.9 33.4 12.2 24 14.2 N 17 22 9 12 1010.9 1010.9 0.0
25/03:30pm 35.2 32.3 12.8 26 13.5 N 20 32 11 17 1011.3 1011.3 0.0
25/03:00pm 36.3 34.1 14.9 28 13.4 NNE 20 30 11 16 1011.6 1011.6 0.0
25/02:30pm 34.4 31.6 12.7 27 13.0 N 19 24 10 13 1012.1 1012.1 0.0
25/02:00pm 34.5 31.9 13.3 27 12.9 N 19 24 10 13 1012.7 1012.7 0.0
25/01:30pm 35.0 32.6 14.3 29 12.8 N 20 28 11 15 1013.3 1013.3 0.0
25/01:00pm 33.8 31.4 14.3 31 12.0 N 20 28 11 15 1014.1 1014.0 0.0
25/12:30pm 32.7 30.6 14.8 34 11.0 N 19 28 10 15 1014.8 1014.7 0.0
25/12:00pm 31.3 28.9 14.4 35 10.3 N 20 28 11 15 1015.4 1015.3 0.0
25/11:30am 30.0 26.2 13.7 37 9.8 N 26 33 14 18 1016.2 1016.1 0.0
25/11:00am 29.2 25.6 14.2 40 9.0 N 26 37 14 20 1016.9 1016.8 0.0
25/10:30am 28.0 24.7 13.9 42 8.4 NNW 24 37 13 20 1017.4 1017.3 0.0
25/10:00am 26.7 22.8 13.4 43 7.8 N 26 33 14 18 1017.8 1017.7 0.0
25/09:30am 25.5 21.7 13.7 48 6.9 N 26 33 14 18 1018.3 1018.2 0.0
25/09:00am 24.2 20.8 13.7 52 6.1 NNW 24 32 13 17 1018.6 1018.5 0.0
25/08:30am 23.5 20.2 13.9 55 5.6 NNW 24 35 13 19 1018.6 1018.5 0.0
25/08:00am 22.2 19.6 13.8 59 4.9 N 20 32 11 17 1018.6 1018.5 0.0
25/07:30am 21.1 18.8 14.0 64 4.1 NNW 19 24 10 13 1018.4 1018.3 0.0
25/07:00am 19.5 18.7 13.9 70 3.2 NNW 11 17 6 9 1018.4 1018.3 0.0
25/06:30am 17.6 17.0 13.5 77 2.3 NNW 9 15 5 8 1018.2 1018.1 0.0
25/06:00am 16.1 16.4 12.1 77 2.2 NNW 2 7 1 4 1017.8 1017.7 0.0
25/05:30am 17.1 16.2 12.6 75 2.5 N 9 11 5 6 1017.5 1017.4 0.0
25/05:00am 18.5 17.1 13.4 72 2.9 NNW 13 20 7 11 1017.2 1017.1 0.0
25/04:30am 18.1 16.3 13.4 74 2.7 N 15 19 8 10 1017.0 1016.9 0.0
25/04:00am 18.8 16.7 13.6 72 3.0 NNW 17 26 9 14 1016.8 1016.7 0.0
25/03:30am 17.8 16.4 13.3 75 2.5 N 13 17 7 9 1017.5 1017.4 0.0
25/03:00am 17.3 16.5 13.0 76 2.4 N 9 13 5 7 1017.7 1017.6 0.0
25/02:30am 17.8 17.1 13.1 74 2.6 NNW 9 13 5 7 1018.0 1017.9 0.0
25/02:00am 18.9 17.5 13.5 71 3.1 NNW 13 19 7 10 1018.3 1018.2 0.0
25/01:30am 18.8 16.7 13.6 72 3.0 N 17 22 9 12 1018.5 1018.4 0.0
25/01:00am 19.0 16.9 13.6 71 3.1 N 17 22 9 12 1018.9 1018.8 0.0
25/12:30am 19.4 18.1 13.8 70 3.2 NNW 13 20 7 11 1019.5 1019.4 0.0
25/12:00am 19.6 17.2 13.8 69 3.3 N 19 28 10 15 1019.1 1019.0 0.0
 
Date/Time
EDT
Temp
°C
App
Temp
°C
Dew
Point
Rel
Hum
%
Delta-T
°C
Wind Press
QNH
hPa
Press
MSL
hPa
Rain
since 9 am
mm
Dir
 
Spd
km/h
Gust
km/h
Spd
kts
Gust
kts
24/11:30pm 20.1 17.8 14.0 68 3.5 N 19 32 10 17 1020.2 1020.1 0.0
24/11:00pm 19.2 18.2 14.7 75 2.6 NNW 13 19 7 10 1020.4 1020.3 0.0
24/10:30pm 17.4 17.2 13.7 79 2.1 W 7 9 4 5 1020.5 1020.4 0.0
24/10:00pm 18.8 18.8 14.1 74 2.7 N 7 11 4 6 1020.3 1020.2 0.0
24/09:30pm 18.4 18.4 14.1 76 2.5 NE 7 9 4 5 1020.1 1020.0 0.0
24/09:00pm 18.9 19.0 14.0 73 2.8 ESE 6 7 3 4 1019.9 1019.8 0.0
24/08:30pm 19.4 19.1 14.4 73 2.9 ESE 9 9 5 5 1019.5 1019.4 0.0
24/08:00pm 19.7 18.3 14.5 72 3.0 ESE 15 19 8 10 1019.0 1018.9 0.0
24/07:30pm 20.3 19.2 14.2 68 3.5 E 13 17 7 9 1018.6 1018.5 0.0
24/07:00pm 21.5 19.1 14.4 64 4.1 E 20 26 11 14 1018.6 1018.5 0.0
24/06:30pm 22.7 20.0 14.5 60 4.8 E 22 32 12 17 1018.4 1018.3 0.0
24/06:00pm 23.7 20.7 14.9 57 5.2 E 24 32 13 17 1018.0 1017.9 0.0
24/05:30pm 24.6 21.2 14.7 54 5.9 E 26 32 14 17 1017.8 1017.7 0.0
24/05:00pm 25.6 22.6 14.7 51 6.5 E 24 32 13 17 1017.5 1017.4 0.0
24/04:30pm 27.6 23.5 14.9 45 7.7 E 30 37 16 20 1017.3 1017.2 0.0
24/04:00pm 29.0 25.6 14.8 42 8.6 ENE 26 35 14 19 1017.4 1017.3 0.0
24/03:30pm 29.5 26.9 13.7 38 9.5 ENE 20 30 11 16 1017.8 1017.7 0.0
24/03:00pm 30.3 29.1 12.7 34 10.4 E 11 24 6 13 1018.0 1017.9 0.0
24/02:30pm 30.0 28.4 12.9 35 10.1 ESE 13 22 7 12 1018.5 1018.4 0.0
24/02:00pm 29.3 28.2 13.1 37 9.6 SSE 11 17 6 9 1019.0 1018.9 0.0
24/01:30pm 29.0 27.8 14.0 39 9.0 E 13 24 7 13 1019.4 1019.3 0.0
24/01:00pm 28.2 27.3 13.7 41 8.6 E 11 20 6 11 1020.0 1019.9 0.0
24/12:30pm 28.1 27.8 14.3 42 8.3 E 9 17 5 9 1020.4 1020.3 0.0
24/12:00pm 27.1 26.9 14.8 47 7.4 ENE 9 17 5 9 1020.8 1020.7 0.0
24/11:30am 27.1 27.0 16.1 51 6.8 NE 11 15 6 8 1021.3 1021.2 0.0
24/11:00am 25.0 24.8 14.8 53 6.1 NNE 9 19 5 10 1021.6 1021.5 0.0
24/10:30am 24.5 24.5 15.1 55 5.6 NNE 9 15 5 8 1022.1 1022.0 0.0
24/10:00am 23.2 22.7 15.0 60 4.9 N 11 17 6 9 1022.2 1022.1 0.0
24/09:30am 22.1 21.6 15.9 68 3.7 N 13 17 7 9 1022.4 1022.3 0.0
24/09:00am 20.4 20.9 15.6 74 2.8 NW 7 9 4 5 1022.5 1022.4 0.8
24/08:30am 18.6 19.2 15.7 83 1.7 W 7 9 4 5 1022.5 1022.4 0.8
24/08:00am 16.4 17.7 15.1 92 0.7 NNW 2 7 1 4 1022.1 1022.0 0.8
24/07:30am 14.4 15.5 13.4 94 0.6 CALM 0 0 0 0 1022.1 1022.0 0.8
24/07:00am 12.6 13.1 11.7 94 0.5 CALM 0 0 0 0 1021.9 1021.8 0.8
24/06:30am 11.1 11.2 10.0 93 0.6 CALM 0 0 0 0 1021.5 1021.4 0.8
24/06:00am 11.2 11.3 10.1 93 0.6 CALM 0 0 0 0 1021.0 1020.9 0.8
24/05:30am 11.3 11.4 10.2 93 0.6 CALM 0 0 0 0 1020.9 1020.8 0.8
24/05:00am 12.3 12.7 11.2 93 0.6 CALM 0 0 0 0 1020.4 1020.3 0.8
24/04:30am 11.7 10.8 10.6 93 0.6 NNE 6 9 3 5 1020.2 1020.1 0.8
24/04:00am 12.6 13.1 11.5 93 0.6 CALM 0 0 0 0 1020.1 1020.0 0.8
24/03:30am 12.5 12.2 11.4 93 0.6 W 4 6 2 3 1020.2 1020.1 0.8
24/03:00am 12.1 12.4 11.0 93 0.6 CALM 0 0 0 0 1020.3 1020.2 0.8
24/02:30am 12.9 13.5 11.8 93 0.6 CALM 0 0 0 0 1020.1 1020.0 0.8
24/02:00am 13.3 12.8 12.2 93 0.6 N 6 7 3 4 1020.2 1020.1 0.8
24/01:30am 12.9 13.4 11.6 92 0.7 CALM 0 0 0 0 1020.6 1020.5 0.8
24/01:00am 14.1 15.0 13.0 93 0.6 CALM 0 0 0 0 1020.8 1020.7 0.8
24/12:30am 14.8 16.0 13.7 93 0.6 CALM 0 0 0 0 1020.8 1020.7 0.8
24/12:00am 14.8 16.0 13.7 93 0.6 CALM 0 0 0 0 1020.8 1020.7 0.8
 
Date/Time
EDT
Temp
°C
App
Temp
°C
Dew
Point
Rel
Hum
%
Delta-T
°C
Wind Press
QNH
hPa
Press
MSL
hPa
Rain
since 9 am
mm
Dir
 
Spd
km/h
Gust
km/h
Spd
kts
Gust
kts
23/11:30pm 13.9 14.7 12.5 91 0.8 CALM 0 0 0 0 1020.8 1020.7 0.8
23/11:00pm 15.6 17.0 14.3 92 0.7 CALM 0 7 0 4 1020.7 1020.6 0.8
23/10:30pm 15.8 16.7 14.0 89 1.0 NW 2 7 1 4 1020.6 1020.5 0.8
23/10:00pm 16.6 16.9 14.6 88 1.1 W 6 6 3 3 1020.6 1020.5 0.8
23/09:30pm 16.7 18.1 14.3 86 1.4 CALM 0 0 0 0 1020.4 1020.3 0.8
23/09:00pm 17.9 18.3 15.3 85 1.5 S 7 9 4 5 1019.8 1019.7 0.8
23/08:30pm 18.8 19.4 15.7 82 1.8 NE 7 9 4 5 1019.4 1019.3 0.8
23/08:00pm 19.7 20.5 15.8 78 2.3 E 6 9 3 5 1019.0 1018.9 0.8
23/07:30pm 21.5 21.1 15.3 68 3.7 WSW 11 17 6 9 1019.2 1019.1 0.0
23/07:00pm 22.0 21.7 14.4 62 4.4 SSW 9 15 5 8 1019.1 1019.0 0.0
23/06:30pm 22.4 20.0 13.7 58 5.1 ESE 19 22 10 12 1018.2 1018.1 0.0
23/06:00pm 23.1 21.1 13.8 55 5.4 E 17 20 9 11 1017.5 1017.4 0.0
23/05:30pm 24.3 22.4 14.1 53 6.0 E 17 22 9 12 1017.0 1016.9 0.0
23/05:00pm 26.1 23.5 13.9 47 7.2 E 20 24 11 13 1016.6 1016.5 0.0
23/04:30pm 28.3 25.6 13.4 40 8.8 E 20 24 11 13 1016.0 1015.9 0.0
23/04:00pm 28.9 26.8 11.0 33 10.2 E 13 19 7 10 1015.8 1015.7 0.0
23/03:30pm 29.5 26.6 9.6 29 11.2 ESE 15 20 8 11 1015.8 1015.7 0.0
23/03:00pm 29.6 27.6 10.2 30 11.0 NE 11 17 6 9 1015.9 1015.8 0.0
23/02:30pm 29.4 27.1 10.5 31 10.7 NNE 13 19 7 10 1016.6 1016.5 0.0
23/02:00pm 29.0 27.8 11.6 34 10.0 E 9 17 5 9 1017.0 1016.9 0.0
23/01:30pm 28.3 27.6 11.4 35 9.7 ENE 6 13 3 7 1017.8 1017.7 0.0
23/01:00pm 28.7 27.6 13.0 38 9.2 NNE 11 20 6 11 1018.4 1018.3 0.0

Other Formats:

Comma delimited format used in spreadsheet applications
http://www.bom.gov.au/fwo/IDN60801/IDN60801.94573.axf

JavaScript Object Notation format (JSON) in row-major order
http://www.bom.gov.au/fwo/IDN60801/IDN60801.94573.json